Time;durP1;ratioP1;P1;durP2;ratioP2;P2;SDS_P1;SDS_P2;PMS_P1;PMS_P2;Temp;Humidity;BMP_temperature;BMP_pressure;BME280_temperature;BME280_humidity;BME280_pressure;Samples;Min_cycle;Max_cycle;Signal;HPM_P1;HPM_P2
2022/03/20 00:01:24;;;;;;;;;;;8.40;99.00;;;;;;4907267;29;19931;-79
2022/03/20 00:03:53;;;;;;;;;;;7.70;98.80;;;;;;4908615;29;19942;-81
2022/03/20 00:06:21;;;;;;;;;;;7.70;98.90;;;;;;4906746;29;19931;-78
2022/03/20 00:08:52;;;;;;;;;;;7.80;99.40;;;;;;4906791;29;19936;-79
2022/03/20 00:11:23;;;;;;;;;;;9.50;99.90;;;;;;4926815;29;19938;-79
2022/03/20 00:13:51;;;;;;;;;;;7.80;99.00;;;;;;4912140;29;19931;-79
2022/03/20 00:16:19;;;;;;;;;;;7.70;99.20;;;;;;4929149;29;19933;-79
2022/03/20 00:18:47;;;;;;;;;;;7.80;99.50;;;;;;4928554;29;19927;-80
2022/03/20 00:21:16;;;;;;;;;;;7.60;99.30;;;;;;4877274;29;20678;-80
2022/03/20 00:23:46;;;;;;;;;;;7.60;99.10;;;;;;4906863;29;19931;-78
2022/03/20 00:26:22;;;;;;;;;;;7.50;99.20;;;;;;4910250;29;19936;-79
2022/03/20 00:28:57;;;;;;;;;;;7.70;99.30;;;;;;4911766;29;19927;-82
2022/03/20 00:31:32;;;;;;;;;;;7.50;99.20;;;;;;4908605;29;19927;-81
2022/03/20 00:34:00;;;;;;;;;;;7.50;99.70;;;;;;4912279;29;20008;-80
2022/03/20 00:36:29;;;;;;;;;;;7.50;99.50;;;;;;4909725;29;19937;-80
2022/03/20 00:39:00;;;;;;;;;;;7.90;99.30;;;;;;4908589;29;19934;-79
2022/03/20 00:41:28;;;;;;;;;;;7.30;99.60;;;;;;4909192;29;19938;-81
2022/03/20 00:43:58;;;;;;;;;;;7.50;99.30;;;;;;4909249;29;19931;-79
2022/03/20 00:46:30;;;;;;;;;;;7.50;99.30;;;;;;4924899;29;19939;-79
2022/03/20 00:48:59;;;;;;;;;;;7.40;99.70;;;;;;4892431;29;19931;-80
2022/03/20 00:51:27;;;;;;;;;;;7.40;99.90;;;;;;4893059;29;20317;-81
2022/03/20 00:53:55;;;;;;;;;;;7.50;99.90;;;;;;4906846;29;19934;-80
2022/03/20 00:56:24;;;;;;;;;;;7.40;99.90;;;;;;4896972;29;19927;-81
2022/03/20 00:58:52;;;;;;;;;;;7.40;99.60;;;;;;4909942;29;19938;-78
2022/03/20 01:01:20;;;;;;;;;;;7.50;99.90;;;;;;4880181;29;20002;-80
2022/03/20 01:03:49;;;;;;;;;;;7.40;99.60;;;;;;4901087;29;20301;-81
2022/03/20 01:06:22;;;;;;;;;;;7.40;99.90;;;;;;4910138;29;19931;-81
2022/03/20 01:08:50;;;;;;;;;;;7.30;99.80;;;;;;4892413;29;20586;-81
2022/03/20 01:11:19;;;;;;;;;;;7.30;99.90;;;;;;4911370;29;19927;-82
2022/03/20 01:13:47;;;;;;;;;;;7.30;99.80;;;;;;4905656;29;19931;-79
2022/03/20 01:16:16;;;;;;;;;;;7.20;99.90;;;;;;4877520;29;19932;-81
2022/03/20 01:18:45;;;;;;;;;;;7.20;99.90;;;;;;4892340;29;19936;-83
2022/03/20 01:21:13;;;;;;;;;;;7.20;99.90;;;;;;4893450;29;19935;-85
2022/03/20 01:23:41;;;;;;;;;;;7.20;99.90;;;;;;4887953;29;20005;-83
2022/03/20 01:26:11;;;;;;;;;;;7.10;99.90;;;;;;4911744;29;19927;-80
2022/03/20 01:28:38;;;;;;;;;;;7.10;99.90;;;;;;4927016;29;19931;-82
2022/03/20 01:31:09;;;;;;;;;;;7.10;99.90;;;;;;4910051;29;19937;-81
2022/03/20 01:33:37;;;;;;;;;;;7.10;99.90;;;;;;4912121;29;19927;-81
2022/03/20 01:36:05;;;;;;;;;;;7.10;99.90;;;;;;4896249;29;19938;-81
2022/03/20 01:38:35;;;;;;;;;;;7.00;99.90;;;;;;4895024;29;19947;-79
2022/03/20 01:41:03;;;;;;;;;;;7.00;99.90;;;;;;4912184;29;19931;-79
2022/03/20 01:43:32;;;;;;;;;;;8.30;99.90;;;;;;4880394;29;19935;-80
2022/03/20 01:46:04;;;;;;;;;;;6.90;99.90;;;;;;4912334;29;19915;-83
2022/03/20 01:48:32;;;;;;;;;;;5.90;99.90;;;;;;4895471;29;20649;-81
2022/03/20 01:51:00;;;;;;;;;;;6.90;99.90;;;;;;4911197;29;19945;-82
2022/03/20 01:53:34;;;;;;;;;;;6.80;99.90;;;;;;4910552;29;19942;-81
2022/03/20 01:56:02;;;;;;;;;;;6.80;99.90;;;;;;4894381;29;19935;-81
2022/03/20 01:58:32;;;;;;;;;;;6.80;99.90;;;;;;4927836;29;19927;-81
2022/03/20 02:01:00;;;;;;;;;;;6.80;99.90;;;;;;4927663;29;19931;-79
2022/03/20 02:03:29;;;;;;;;;;;6.80;99.90;;;;;;4911796;29;19931;-80
2022/03/20 02:06:01;;;;;;;;;;;5.40;99.90;;;;;;4892513;29;19927;-80
2022/03/20 02:08:30;;;;;;;;;;;6.60;99.90;;;;;;4909477;29;19932;-80
2022/03/20 02:10:59;;;;;;;;;;;5.50;99.90;;;;;;4877119;29;19927;-79
2022/03/20 02:13:27;;;;;;;;;;;6.60;99.90;;;;;;4893116;29;19927;-79
2022/03/20 02:15:58;;;;;;;;;;;6.50;99.90;;;;;;4892252;29;19931;-82
2022/03/20 02:18:26;;;;;;;;;;;6.50;99.90;;;;;;4893595;29;19931;-82
2022/03/20 02:20:56;;;;;;;;;;;6.50;99.90;;;;;;4898050;29;19931;-80
2022/03/20 02:23:34;;;;;;;;;;;6.40;99.90;;;;;;4912262;29;19931;-81
2022/03/20 02:26:03;;;;;;;;;;;6.00;99.90;;;;;;4912294;29;20385;-82
2022/03/20 02:28:30;;;;;;;;;;;5.70;99.90;;;;;;4912450;29;19931;-83
2022/03/20 02:30:59;;;;;;;;;;;6.50;99.90;;;;;;4908825;29;20467;-82
2022/03/20 02:33:29;;;;;;;;;;;6.30;99.90;;;;;;4910477;29;19938;-83
2022/03/20 02:35:58;;;;;;;;;;;6.30;99.90;;;;;;4912455;29;19927;-82
2022/03/20 02:38:34;;;;;;;;;;;6.20;99.90;;;;;;4912327;29;19931;-81
2022/03/20 02:41:14;;;;;;;;;;;6.20;99.90;;;;;;4895895;29;19927;-81
2022/03/20 02:43:47;;;;;;;;;;;6.20;99.90;;;;;;4913311;29;19938;-81
2022/03/20 02:46:20;;;;;;;;;;;6.20;99.90;;;;;;4927006;29;20316;-81
2022/03/20 02:48:48;;;;;;;;;;;6.10;99.90;;;;;;4897823;29;20295;-81
2022/03/20 02:51:17;;;;;;;;;;;6.10;99.90;;;;;;4928402;29;19940;-80
2022/03/20 02:53:44;;;;;;;;;;;6.00;99.90;;;;;;4915287;29;19937;-78
2022/03/20 02:56:13;;;;;;;;;;;6.00;99.90;;;;;;4903001;29;19927;-80
2022/03/20 02:58:41;;;;;;;;;;;6.00;99.90;;;;;;4916642;29;19931;-81
2022/03/20 03:01:09;;;;;;;;;;;5.90;99.90;;;;;;4924242;29;19930;-80
2022/03/20 03:03:40;;;;;;;;;;;5.90;99.90;;;;;;4885669;29;19927;-80
2022/03/20 03:06:08;;;;;;;;;;;5.90;99.90;;;;;;4914454;29;20502;-80
2022/03/20 03:11:23;;;;;;;;;;;5.90;99.90;;;;;;4882668;29;19935;-80
2022/03/20 03:13:51;;;;;;;;;;;5.80;99.90;;;;;;4914581;29;20317;-83
2022/03/20 03:16:20;;;;;;;;;;;5.80;99.90;;;;;;4896568;29;19928;-81
2022/03/20 03:18:48;;;;;;;;;;;5.80;99.90;;;;;;4913337;29;19927;-85
2022/03/20 03:21:17;;;;;;;;;;;3.80;99.90;;;;;;4912334;29;19942;-81
2022/03/20 03:23:46;;;;;;;;;;;5.80;99.90;;;;;;4912495;29;19927;-83
2022/03/20 03:26:14;;;;;;;;;;;5.70;99.90;;;;;;4913597;29;19938;-79
2022/03/20 03:28:43;;;;;;;;;;;5.70;99.90;;;;;;4897148;29;19934;-80
2022/03/20 03:31:11;;;;;;;;;;;5.60;99.90;;;;;;4912577;29;19932;-85
2022/03/20 03:36:30;;;;;;;;;;;5.60;99.90;;;;;;4914188;29;19934;-79
2022/03/20 03:38:58;;;;;;;;;;;5.50;99.90;;;;;;4897135;29;19928;-81
2022/03/20 03:41:28;;;;;;;;;;;5.50;99.90;;;;;;4912690;29;19938;-81
2022/03/20 03:43:57;;;;;;;;;;;5.40;99.90;;;;;;4913545;29;19939;-81
2022/03/20 03:46:30;;;;;;;;;;;5.40;99.90;;;;;;4911750;29;19923;-83
2022/03/20 03:48:58;;;;;;;;;;;5.40;99.90;;;;;;4897049;29;19935;-80
2022/03/20 03:51:26;;;;;;;;;;;5.30;99.90;;;;;;4913353;29;19936;-80
2022/03/20 03:53:54;;;;;;;;;;;5.30;99.90;;;;;;4896098;29;19934;-80
2022/03/20 03:56:23;;;;;;;;;;;5.30;99.90;;;;;;4896338;29;19931;-80
2022/03/20 03:58:51;;;;;;;;;;;5.20;99.90;;;;;;4917619;29;20492;-79
2022/03/20 04:01:20;;;;;;;;;;;5.30;99.90;;;;;;4902913;29;19924;-80
2022/03/20 04:03:48;;;;;;;;;;;5.10;99.90;;;;;;4911529;29;20016;-82
2022/03/20 04:06:16;;;;;;;;;;;5.10;99.90;;;;;;4911822;29;19931;-80
2022/03/20 04:08:44;;;;;;;;;;;5.10;99.90;;;;;;4879941;29;19931;-79
2022/03/20 04:11:12;;;;;;;;;;;5.10;99.90;;;;;;4912121;29;19928;-79
2022/03/20 04:13:41;;;;;;;;;;;5.10;99.90;;;;;;4896050;29;19939;-79
2022/03/20 04:16:10;;;;;;;;;;;5.10;99.90;;;;;;4895768;29;19934;-80
2022/03/20 04:18:38;;;;;;;;;;;5.00;99.90;;;;;;4895186;29;19935;-80
2022/03/20 04:21:10;;;;;;;;;;;5.00;99.90;;;;;;4901002;29;19933;-79
2022/03/20 04:23:45;;;;;;;;;;;6.10;99.90;;;;;;4912380;29;20075;-82
2022/03/20 04:26:17;;;;;;;;;;;5.00;99.90;;;;;;4911378;29;19936;-81
2022/03/20 04:28:47;;;;;;;;;;;5.00;99.90;;;;;;4921163;29;19927;-79
2022/03/20 04:31:15;;;;;;;;;;;5.00;99.90;;;;;;4900721;29;19939;-80
2022/03/20 04:33:44;;;;;;;;;;;4.90;99.90;;;;;;4910983;29;19928;-80
2022/03/20 04:36:12;;;;;;;;;;;4.30;99.90;;;;;;4896931;29;19979;-80
2022/03/20 04:38:40;;;;;;;;;;;4.90;99.90;;;;;;4896289;29;19934;-80
2022/03/20 04:41:10;;;;;;;;;;;4.80;99.90;;;;;;4912944;29;19934;-81
2022/03/20 04:43:38;;;;;;;;;;;4.80;99.90;;;;;;4912607;29;19939;-81
2022/03/20 04:46:06;;;;;;;;;;;5.80;99.90;;;;;;4881991;29;19947;-82
2022/03/20 04:59:44;;;;;;;;;;;4.30;99.90;;;;;;4891853;29;20308;-81
2022/03/20 05:02:12;;;;;;;;;;;4.40;99.90;;;;;;4910940;29;19928;-80
2022/03/20 05:04:41;;;;;;;;;;;4.10;99.90;;;;;;4910709;29;19927;-80
2022/03/20 05:07:09;;;;;;;;;;;4.20;99.90;;;;;;4880234;29;19928;-79
2022/03/20 05:15:15;;;;;;;;;;;2.50;99.90;;;;;;4912089;29;19938;-79
2022/03/20 05:17:44;;;;;;;;;;;4.00;99.90;;;;;;4894809;29;19931;-80
2022/03/20 05:20:12;;;;;;;;;;;3.60;99.90;;;;;;4912381;29;19942;-79
2022/03/20 05:22:41;;;;;;;;;;;3.90;99.90;;;;;;4910601;29;19934;-80
2022/03/20 05:25:12;;;;;;;;;;;3.80;99.90;;;;;;4910822;29;19928;-81
2022/03/20 05:27:40;;;;;;;;;;;3.80;99.90;;;;;;4911053;29;19943;-83
2022/03/20 05:30:10;;;;;;;;;;;3.80;99.90;;;;;;4894640;29;19932;-83
2022/03/20 05:32:40;;;;;;;;;;;3.70;99.90;;;;;;4907839;29;19939;-80
2022/03/20 05:35:09;;;;;;;;;;;3.70;99.90;;;;;;4911433;29;20296;-82
2022/03/20 05:37:38;;;;;;;;;;;3.50;99.90;;;;;;4911893;29;19932;-83
2022/03/20 05:40:06;;;;;;;;;;;3.80;99.90;;;;;;4880621;29;19935;-83
2022/03/20 05:42:38;;;;;;;;;;;3.50;99.90;;;;;;4880973;29;19928;-82
2022/03/20 05:45:10;;;;;;;;;;;3.60;99.90;;;;;;4913012;29;19923;-80
2022/03/20 05:47:39;;;;;;;;;;;3.50;99.90;;;;;;4911569;29;19930;-82
2022/03/20 05:50:09;;;;;;;;;;;2.60;99.90;;;;;;4909955;29;20391;-83
2022/03/20 05:52:38;;;;;;;;;;;3.50;99.90;;;;;;4910463;29;19934;-86
2022/03/20 05:55:06;;;;;;;;;;;3.60;99.90;;;;;;4910096;29;19947;-81
2022/03/20 06:00:26;;;;;;;;;;;1.90;99.90;;;;;;4882337;29;19943;-82
2022/03/20 06:02:57;;;;;;;;;;;3.40;99.90;;;;;;4908681;29;19938;-81
2022/03/20 06:05:25;;;;;;;;;;;2.30;99.90;;;;;;4910078;29;19939;-81
2022/03/20 06:07:54;;;;;;;;;;;3.40;99.90;;;;;;4909691;29;19928;-81
2022/03/20 06:10:23;;;;;;;;;;;3.30;99.90;;;;;;4909769;29;19935;-81
2022/03/20 06:12:51;;;;;;;;;;;4.30;99.90;;;;;;4910225;29;19931;-80
2022/03/20 06:15:19;;;;;;;;;;;3.30;99.90;;;;;;4909285;29;20128;-79
2022/03/20 06:17:48;;;;;;;;;;;3.30;99.90;;;;;;4893821;29;19927;-81
2022/03/20 06:20:17;;;;;;;;;;;3.60;99.90;;;;;;4891772;29;20096;-81
2022/03/20 06:22:45;;;;;;;;;;;3.20;99.90;;;;;;4907092;29;19938;-85
2022/03/20 06:25:15;;;;;;;;;;;3.20;99.90;;;;;;4891685;29;19935;-80
2022/03/20 06:27:51;;;;;;;;;;;3.20;99.90;;;;;;4907423;29;19934;-84
2022/03/20 06:30:21;;;;;;;;;;;3.20;99.90;;;;;;4906882;29;19927;-83
2022/03/20 06:32:50;;;;;;;;;;;3.20;99.90;;;;;;4905981;29;19937;-80
2022/03/20 06:35:18;;;;;;;;;;;3.10;99.90;;;;;;4906320;29;19927;-84
2022/03/20 06:37:55;;;;;;;;;;;3.10;99.90;;;;;;4875400;29;19931;-81
2022/03/20 06:40:23;;;;;;;;;;;3.20;99.90;;;;;;4899605;29;19935;-80
2022/03/20 06:42:52;;;;;;;;;;;3.20;99.90;;;;;;4886966;29;20326;-82
2022/03/20 06:45:20;;;;;;;;;;;3.20;99.90;;;;;;4908252;29;19935;-81
2022/03/20 06:47:50;;;;;;;;;;;3.00;99.90;;;;;;4906912;29;19927;-84
2022/03/20 06:50:18;;;;;;;;;;;3.20;99.90;;;;;;4891071;29;19935;-81
2022/03/20 06:52:46;;;;;;;;;;;3.10;99.90;;;;;;4891169;29;19927;-81
2022/03/20 06:55:15;;;;;;;;;;;3.30;99.90;;;;;;4907789;29;19936;-84
2022/03/20 06:57:44;;;;;;;;;;;3.30;99.90;;;;;;4908668;29;19934;-81
2022/03/20 07:00:13;;;;;;;;;;;3.40;99.90;;;;;;4919015;29;19932;-81
2022/03/20 07:02:58;;;;;;;;;;;3.70;99.90;;;;;;4899806;29;19928;-80
2022/03/20 07:05:32;;;;;;;;;;;3.40;99.90;;;;;;4906142;29;19929;-82
2022/03/20 07:08:00;;;;;;;;;;;3.50;99.90;;;;;;4889994;29;19931;-81
2022/03/20 07:10:28;;;;;;;;;;;3.50;99.90;;;;;;4907770;29;19934;-81
2022/03/20 07:15:45;;;;;;;;;;;3.60;99.90;;;;;;4907669;29;19935;-79
2022/03/20 07:18:16;;;;;;;;;;;3.70;99.90;;;;;;4906104;29;19927;-82
2022/03/20 07:20:45;;;;;;;;;;;3.90;99.90;;;;;;4875853;29;19931;-81
2022/03/20 07:23:13;;;;;;;;;;;4.10;99.90;;;;;;4893125;29;19927;-79
2022/03/20 07:31:17;;;;;;;;;;;4.20;99.90;;;;;;4908856;29;19938;-81
2022/03/20 07:33:44;;;;;;;;;;;4.30;99.90;;;;;;4910453;29;19932;-80
2022/03/20 07:36:12;;;;;;;;;;;4.10;99.90;;;;;;4878757;29;19928;-81
2022/03/20 07:38:42;;;;;;;;;;;4.50;99.90;;;;;;4893901;29;19931;-81
2022/03/20 07:41:11;;;;;;;;;;;4.60;99.90;;;;;;4895069;29;19927;-80
2022/03/20 07:43:39;;;;;;;;;;;4.80;99.90;;;;;;4910937;29;19935;-80
2022/03/20 07:46:08;;;;;;;;;;;5.00;99.90;;;;;;4911273;29;19927;-82
2022/03/20 07:48:37;;;;;;;;;;;4.80;99.90;;;;;;4911361;29;19928;-84
2022/03/20 07:51:07;;;;;;;;;;;4.90;99.90;;;;;;4911097;29;19931;-79
2022/03/20 07:53:34;;;;;;;;;;;4.90;99.90;;;;;;4877690;29;19931;-80
2022/03/20 07:56:02;;;;;;;;;;;5.00;99.90;;;;;;4863881;29;19932;-84
2022/03/20 07:58:31;;;;;;;;;;;5.00;99.90;;;;;;4910863;29;19928;-82
2022/03/20 08:01:01;;;;;;;;;;;5.20;99.90;;;;;;4911019;29;19928;-83
2022/03/20 08:03:30;;;;;;;;;;;5.30;99.90;;;;;;4893975;29;19924;-83
2022/03/20 08:05:58;;;;;;;;;;;5.30;99.90;;;;;;4892047;29;20129;-83
2022/03/20 08:08:26;;;;;;;;;;;5.50;99.90;;;;;;4890774;29;19938;-82
2022/03/20 08:10:54;;;;;;;;;;;5.60;99.90;;;;;;4891841;29;20345;-81
2022/03/20 08:13:23;;;;;;;;;;;5.70;99.90;;;;;;4860261;29;19938;-81
2022/03/20 08:15:53;;;;;;;;;;;5.80;99.90;;;;;;4874547;29;19932;-79
2022/03/20 08:18:21;;;;;;;;;;;5.90;99.90;;;;;;4874617;29;19928;-80
2022/03/20 08:20:49;;;;;;;;;;;5.80;99.90;;;;;;4890404;29;19936;-81
2022/03/20 08:23:17;;;;;;;;;;;6.20;99.90;;;;;;4890799;29;19939;-84
2022/03/20 08:25:45;;;;;;;;;;;5.30;99.90;;;;;;4889623;29;19932;-79
2022/03/20 08:28:13;;;;;;;;;;;6.20;99.90;;;;;;4861469;29;19928;-81
2022/03/20 08:30:41;;;;;;;;;;;6.30;99.90;;;;;;4902126;29;19935;-80
2022/03/20 08:33:09;;;;;;;;;;;6.60;99.90;;;;;;4910359;29;19934;-82
2022/03/20 08:35:38;;;;;;;;;;;6.80;99.90;;;;;;4911962;29;19931;-79
2022/03/20 08:38:08;;;;;;;;;;;6.80;99.90;;;;;;4908993;29;19935;-80
2022/03/20 08:40:40;;;;;;;;;;;6.90;99.90;;;;;;4910673;29;19938;-82
2022/03/20 08:43:15;;;;;;;;;;;7.10;99.90;;;;;;4926720;29;19927;-82
2022/03/20 08:45:44;;;;;;;;;;;7.00;99.90;;;;;;4911051;29;19934;-80
2022/03/20 08:48:13;;;;;;;;;;;7.10;99.90;;;;;;4911566;29;20350;-81
2022/03/20 08:50:44;;;;;;;;;;;7.20;99.90;;;;;;4928088;29;19931;-80
2022/03/20 08:53:12;;;;;;;;;;;7.20;99.90;;;;;;4910852;29;20393;-81
2022/03/20 08:55:39;;;;;;;;;;;7.30;99.90;;;;;;4896355;29;20256;-80
2022/03/20 08:58:07;;;;;;;;;;;6.30;99.90;;;;;;4910663;29;19941;-81
2022/03/20 09:00:38;;;;;;;;;;;7.50;99.90;;;;;;4911614;29;20509;-79
2022/03/20 09:03:06;;;;;;;;;;;7.60;99.90;;;;;;4920418;29;21027;-80
2022/03/20 09:05:35;;;;;;;;;;;7.60;99.90;;;;;;4911768;29;19937;-79
2022/03/20 09:08:03;;;;;;;;;;;7.70;99.90;;;;;;4897059;29;19933;-83
2022/03/20 09:10:31;;;;;;;;;;;7.60;99.90;;;;;;4913412;29;19927;-81
2022/03/20 09:13:01;;;;;;;;;;;8.50;99.90;;;;;;4913812;29;19927;-80
2022/03/20 09:15:38;;;;;;;;;;;7.70;99.90;;;;;;4910914;29;19933;-80
2022/03/20 09:20:57;;;;;;;;;;;7.80;99.90;;;;;;4907637;29;19927;-80
2022/03/20 09:23:26;;;;;;;;;;;7.80;99.90;;;;;;4888306;29;19928;-79
2022/03/20 09:25:54;;;;;;;;;;;7.90;99.90;;;;;;4890639;29;20498;-82
2022/03/20 09:28:23;;;;;;;;;;;8.00;99.90;;;;;;4892281;29;20356;-80
2022/03/20 09:30:53;;;;;;;;;;;8.10;99.90;;;;;;4895565;29;19928;-82
2022/03/20 09:33:28;;;;;;;;;;;8.10;99.90;;;;;;4893182;29;20405;-81
2022/03/20 09:35:56;;;;;;;;;;;8.60;99.90;;;;;;4893924;29;19927;-82
2022/03/20 09:38:26;;;;;;;;;;;8.40;99.90;;;;;;4909083;29;19934;-81
2022/03/20 09:40:56;;;;;;;;;;;8.40;99.90;;;;;;4895294;29;19937;-83
2022/03/20 09:43:25;;;;;;;;;;;8.50;99.90;;;;;;4927438;29;19928;-80
2022/03/20 09:45:54;;;;;;;;;;;8.70;99.90;;;;;;4910019;29;19927;-79
2022/03/20 09:48:22;;;;;;;;;;;8.90;99.90;;;;;;4910614;29;19938;-81
2022/03/20 09:50:51;;;;;;;;;;;8.90;99.90;;;;;;4908276;29;19927;-82
2022/03/20 09:53:20;;;;;;;;;;;9.10;99.90;;;;;;4903617;29;20635;-82
2022/03/20 09:55:49;;;;;;;;;;;8.20;99.90;;;;;;4892083;29;19927;-84
2022/03/20 09:58:17;;;;;;;;;;;8.80;99.90;;;;;;4909434;29;19962;-81
2022/03/20 10:00:46;;;;;;;;;;;9.20;99.90;;;;;;4924665;29;19927;-82
2022/03/20 10:03:15;;;;;;;;;;;9.50;99.90;;;;;;4893736;29;19938;-82
2022/03/20 10:05:44;;;;;;;;;;;9.30;99.90;;;;;;4910342;29;19927;-84
2022/03/20 10:08:17;;;;;;;;;;;9.40;99.90;;;;;;4908220;29;19927;-82
2022/03/20 10:10:47;;;;;;;;;;;9.30;99.90;;;;;;4894541;29;19931;-81
2022/03/20 10:13:15;;;;;;;;;;;9.60;99.90;;;;;;4908744;29;19942;-81
2022/03/20 10:15:44;;;;;;;;;;;9.60;99.90;;;;;;4927075;29;19931;-82
2022/03/20 10:18:18;;;;;;;;;;;8.60;99.90;;;;;;4910226;29;19927;-85
2022/03/20 10:20:50;;;;;;;;;;;9.70;99.90;;;;;;4923320;29;19931;-85
2022/03/20 10:23:28;;;;;;;;;;;9.70;99.90;;;;;;4906169;29;19927;-81
2022/03/20 10:25:56;;;;;;;;;;;9.70;99.90;;;;;;4925451;29;20430;-82
2022/03/20 10:28:32;;;;;;;;;;;10.80;99.90;;;;;;4926084;29;19927;-81
2022/03/20 10:31:03;;;;;;;;;;;9.70;99.90;;;;;;4908174;29;20827;-80
2022/03/20 10:33:33;;;;;;;;;;;9.70;99.90;;;;;;4893344;29;19941;-81
2022/03/20 10:36:11;;;;;;;;;;;9.70;99.90;;;;;;4925893;29;19935;-81
2022/03/20 10:38:43;;;;;;;;;;;9.70;99.90;;;;;;4920695;29;19931;-80
2022/03/20 10:41:16;;;;;;;;;;;9.70;99.90;;;;;;4919898;29;20854;-80
2022/03/20 10:43:45;;;;;;;;;;;9.80;99.90;;;;;;4892209;29;19938;-82
2022/03/20 10:46:18;;;;;;;;;;;9.70;99.90;;;;;;4907917;29;19927;-83
2022/03/20 10:48:53;;;;;;;;;;;9.70;99.60;;;;;;4907806;29;20305;-81
2022/03/20 10:51:40;;;;;;;;;;;9.70;99.90;;;;;;4912957;29;19931;-80
2022/03/20 10:54:16;;;;;;;;;;;10.30;99.20;;;;;;4893371;29;19927;-81
2022/03/20 10:56:56;;;;;;;;;;;9.80;99.80;;;;;;4925217;29;20045;-81
2022/03/20 10:59:26;;;;;;;;;;;10.10;98.40;;;;;;4910254;29;19933;-81
2022/03/20 11:01:54;;;;;;;;;;;10.20;98.30;;;;;;4913075;29;20546;-83
2022/03/20 11:04:25;;;;;;;;;;;10.50;96.50;;;;;;4911151;29;19928;-82
2022/03/20 11:06:54;;;;;;;;;;;10.50;97.30;;;;;;4927633;29;19937;-83
2022/03/20 11:09:23;;;;;;;;;;;10.70;96.70;;;;;;4908435;29;19931;-80
2022/03/20 11:11:53;;;;;;;;;;;10.40;96.00;;;;;;4910415;29;19927;-83
2022/03/20 11:14:22;;;;;;;;;;;10.50;96.70;;;;;;4910198;29;19934;-83
2022/03/20 11:16:55;;;;;;;;;;;10.50;96.70;;;;;;4924337;29;19927;-81
2022/03/20 11:19:25;;;;;;;;;;;10.70;96.80;;;;;;4893814;29;20300;-79
2022/03/20 11:21:54;;;;;;;;;;;10.50;96.60;;;;;;4913388;29;19927;-82
2022/03/20 11:24:23;;;;;;;;;;;10.50;96.30;;;;;;4911233;29;20396;-80
2022/03/20 11:26:52;;;;;;;;;;;11.20;96.80;;;;;;4908446;29;19934;-81
2022/03/20 11:29:23;;;;;;;;;;;11.50;96.40;;;;;;4927278;29;19934;-80
2022/03/20 11:31:52;;;;;;;;;;;10.50;96.40;;;;;;4903128;29;19943;-83
2022/03/20 11:34:22;;;;;;;;;;;10.40;96.50;;;;;;4909872;29;19931;-80
2022/03/20 11:37:07;;;;;;;;;;;10.40;96.70;;;;;;4923496;29;19927;-82
2022/03/20 11:39:36;;;;;;;;;;;9.60;96.40;;;;;;4923627;29;19962;-85
2022/03/20 11:42:25;;;;;;;;;;;10.30;96.80;;;;;;4926776;29;19927;-83
2022/03/20 11:45:17;;;;;;;;;;;10.20;96.70;;;;;;4919808;29;19946;-84
2022/03/20 11:47:50;;;;;;;;;;;10.10;96.90;;;;;;4906264;29;20269;-80
2022/03/20 11:50:19;;;;;;;;;;;10.00;97.00;;;;;;4908800;29;19938;-80
2022/03/20 11:52:50;;;;;;;;;;;10.00;97.30;;;;;;4876736;29;19931;-82
2022/03/20 11:55:31;;;;;;;;;;;10.20;97.10;;;;;;4892984;29;19931;-79
2022/03/20 11:58:05;;;;;;;;;;;10.20;96.80;;;;;;4907462;29;19938;-79
2022/03/20 12:00:39;;;;;;;;;;;10.40;96.70;;;;;;4922560;29;19928;-80
2022/03/20 12:03:07;;;;;;;;;;;10.60;96.80;;;;;;4893145;29;20523;-82
2022/03/20 12:05:43;;;;;;;;;;;10.70;97.40;;;;;;4891779;29;19927;-79
2022/03/20 12:08:34;;;;;;;;;;;10.60;97.10;;;;;;4890986;29;19934;-79
2022/03/20 12:11:06;;;;;;;;;;;10.70;97.00;;;;;;4894233;29;19942;-81
2022/03/20 12:13:59;;;;;;;;;;;10.90;97.20;;;;;;4907603;29;19927;-83
2022/03/20 12:16:47;;;;;;;;;;;11.00;97.30;;;;;;4893130;29;19927;-87
2022/03/20 12:19:17;;;;;;;;;;;11.20;96.70;;;;;;4908920;29;19965;-83
2022/03/20 12:21:52;;;;;;;;;;;11.30;96.50;;;;;;4909758;29;19948;-83
2022/03/20 12:24:46;;;;;;;;;;;11.40;96.50;;;;;;4894917;29;20040;-80
2022/03/20 12:27:24;;;;;;;;;;;11.50;96.10;;;;;;4904493;29;19937;-78
2022/03/20 12:30:15;;;;;;;;;;;11.60;95.00;;;;;;4908331;29;19932;-79
2022/03/20 12:32:46;;;;;;;;;;;11.60;95.60;;;;;;4891909;29;19931;-80
2022/03/20 12:35:14;;;;;;;;;;;11.70;94.90;;;;;;4892967;29;19928;-83
2022/03/20 12:37:44;;;;;;;;;;;11.20;94.60;;;;;;4892519;29;19938;-82
2022/03/20 12:40:16;;;;;;;;;;;11.80;95.20;;;;;;4875731;29;19927;-86
2022/03/20 12:43:08;;;;;;;;;;;11.90;93.90;;;;;;4907862;29;19939;-81
2022/03/20 12:45:42;;;;;;;;;;;12.00;93.00;;;;;;4888631;29;19938;-79
2022/03/20 12:48:16;;;;;;;;;;;12.20;92.80;;;;;;4902552;29;19931;-82
2022/03/20 12:50:49;;;;;;;;;;;12.20;92.50;;;;;;4871521;29;19932;-79
2022/03/20 12:53:21;;;;;;;;;;;12.20;92.70;;;;;;4887638;29;19938;-81
2022/03/20 12:55:57;;;;;;;;;;;12.20;93.00;;;;;;4904388;29;20692;-80
2022/03/20 12:58:25;;;;;;;;;;;12.00;92.80;;;;;;4904627;29;19939;-80
2022/03/20 13:00:55;;;;;;;;;;;12.00;93.30;;;;;;4880313;29;19932;-79
2022/03/20 13:03:26;;;;;;;;;;;12.00;93.20;;;;;;4903510;29;20417;-78
2022/03/20 13:05:59;;;;;;;;;;;12.30;93.30;;;;;;4888109;29;19939;-79
2022/03/20 13:08:29;;;;;;;;;;;12.10;93.20;;;;;;4887977;29;19938;-79
2022/03/20 13:11:00;;;;;;;;;;;12.20;92.20;;;;;;4887820;29;19939;-80
2022/03/20 13:13:34;;;;;;;;;;;12.30;92.70;;;;;;4899177;29;19943;-80
2022/03/20 13:16:14;;;;;;;;;;;12.40;92.00;;;;;;4903068;29;19931;-82
2022/03/20 13:18:45;;;;;;;;;;;12.50;92.10;;;;;;4887461;29;19931;-79
2022/03/20 13:21:14;;;;;;;;;;;11.00;91.30;;;;;;4887174;29;19939;-80
2022/03/20 13:23:44;;;;;;;;;;;12.50;92.10;;;;;;4870262;29;19931;-79
2022/03/20 13:26:14;;;;;;;;;;;12.70;92.50;;;;;;4903595;29;19938;-79
2022/03/20 13:28:47;;;;;;;;;;;12.40;91.70;;;;;;4883691;29;19928;-80
2022/03/20 13:31:21;;;;;;;;;;;12.80;91.10;;;;;;4889382;29;19927;-80
2022/03/20 13:33:53;;;;;;;;;;;12.80;91.30;;;;;;4888087;29;19934;-79
2022/03/20 13:36:35;;;;;;;;;;;13.10;91.60;;;;;;4880932;29;19938;-77
2022/03/20 13:39:11;;;;;;;;;;;12.90;90.20;;;;;;4886993;29;19936;-80
2022/03/20 13:41:41;;;;;;;;;;;13.00;90.50;;;;;;4885158;29;19927;-79
2022/03/20 13:44:12;;;;;;;;;;;13.10;90.60;;;;;;4901563;29;19939;-80
2022/03/20 13:46:41;;;;;;;;;;;13.20;89.70;;;;;;4890409;29;19936;-78
2022/03/20 13:49:10;;;;;;;;;;;13.20;88.60;;;;;;4870942;29;19938;-79
2022/03/20 13:51:40;;;;;;;;;;;13.10;89.00;;;;;;4885418;29;19931;-79
2022/03/20 13:54:13;;;;;;;;;;;13.50;88.50;;;;;;4867558;29;19939;-82
2022/03/20 13:56:43;;;;;;;;;;;13.60;87.30;;;;;;4886439;29;19936;-82
2022/03/20 13:59:13;;;;;;;;;;;13.80;86.80;;;;;;4903261;29;19935;-78
2022/03/20 14:01:47;;;;;;;;;;;13.90;86.70;;;;;;4868560;29;19935;-80
2022/03/20 14:04:17;;;;;;;;;;;14.00;86.20;;;;;;4900013;29;19958;-79
2022/03/20 14:06:56;;;;;;;;;;;14.20;87.30;;;;;;4866863;29;20585;-79
2022/03/20 14:09:31;;;;;;;;;;;14.30;85.00;;;;;;4901506;29;19928;-82
2022/03/20 14:12:00;;;;;;;;;;;14.40;85.70;;;;;;4885877;29;19927;-80
2022/03/20 14:14:51;;;;;;;;;;;14.60;84.40;;;;;;4884968;29;19936;-81
2022/03/20 14:17:38;;;;;;;;;;;14.70;81.40;;;;;;4900157;29;19942;-82
2022/03/20 14:20:11;;;;;;;;;;;15.00;84.80;;;;;;4885853;29;19939;-80
2022/03/20 14:22:43;;;;;;;;;;;15.20;85.10;;;;;;4887067;29;19927;-79
2022/03/20 14:25:30;;;;;;;;;;;15.30;84.50;;;;;;4871375;29;20317;-79
2022/03/20 14:28:02;;;;;;;;;;;15.60;83.00;;;;;;4886665;29;19928;-80
2022/03/20 14:41:51;;;;;;;;;;;16.70;79.60;;;;;;4910383;29;19928;-81
2022/03/20 14:44:23;;;;;;;;;;;16.80;79.00;;;;;;4909704;29;19931;-79
2022/03/20 14:46:53;;;;;;;;;;;17.00;79.30;;;;;;4895278;29;19935;-80
2022/03/20 14:49:24;;;;;;;;;;;17.40;77.60;;;;;;4912782;29;19935;-79
2022/03/20 14:51:53;;;;;;;;;;;17.20;77.70;;;;;;4910070;29;19935;-78
2022/03/20 14:54:23;;;;;;;;;;;17.40;78.40;;;;;;4924379;29;19967;-81
2022/03/20 14:56:51;;;;;;;;;;;17.20;73.10;;;;;;4909911;29;19946;-81
2022/03/20 14:59:19;;;;;;;;;;;17.30;74.80;;;;;;4907436;29;19927;-80
2022/03/20 15:01:47;;;;;;;;;;;17.50;73.60;;;;;;4907419;29;19928;-79
2022/03/20 15:04:16;;;;;;;;;;;17.60;75.40;;;;;;4907697;29;19942;-79
2022/03/20 15:06:51;;;;;;;;;;;17.90;74.30;;;;;;4896800;29;19934;-80
2022/03/20 15:12:12;;;;;;;;;;;18.20;73.20;;;;;;4908939;29;20286;-79
2022/03/20 15:14:41;;;;;;;;;;;18.30;71.90;;;;;;4879259;29;19931;-77
2022/03/20 15:17:09;;;;;;;;;;;18.40;71.30;;;;;;4894035;29;19942;-78
2022/03/20 15:19:37;;;;;;;;;;;18.50;70.40;;;;;;4891887;29;19936;-80
2022/03/20 15:22:05;;;;;;;;;;;18.50;68.80;;;;;;4905817;29;19932;-77
2022/03/20 15:24:35;;;;;;;;;;;18.50;68.90;;;;;;4908544;29;19932;-82
2022/03/20 15:27:03;;;;;;;;;;;18.40;68.30;;;;;;4907605;29;19931;-79
2022/03/20 15:29:31;;;;;;;;;;;18.30;68.00;;;;;;4908217;29;19943;-79
2022/03/20 15:32:04;;;;;;;;;;;17.90;68.40;;;;;;4908981;29;19942;-78
2022/03/20 15:34:34;;;;;;;;;;;17.40;66.50;;;;;;4908727;29;20216;-79
2022/03/20 15:37:03;;;;;;;;;;;17.10;67.40;;;;;;4908385;29;19931;-80